sensor_id;sensor_type;location;lat;lon;timestamp;pressure;altitude;pressure_sealevel;temperature;humidity
55418;BME280;41287;47.554;7.844;2023-05-20T00:00:26;97972.31;;;18.67;54.43
55418;BME280;41287;47.554;7.844;2023-05-20T00:02:52;97968.78;;;18.66;54.47
55418;BME280;41287;47.554;7.844;2023-05-20T00:05:17;97969.59;;;18.67;54.29
55418;BME280;41287;47.554;7.844;2023-05-20T00:07:42;97975.81;;;18.67;54.39
55418;BME280;41287;47.554;7.844;2023-05-20T00:10:08;97963.38;;;18.66;54.43
55418;BME280;41287;47.554;7.844;2023-05-20T00:12:37;97968.78;;;18.66;54.26
55418;BME280;41287;47.554;7.844;2023-05-20T00:15:02;97960.66;;;18.66;54.43
55418;BME280;41287;47.554;7.844;2023-05-20T00:17:27;97963.38;;;18.66;54.37
55418;BME280;41287;47.554;7.844;2023-05-20T00:19:53;97970.38;;;18.67;54.30
55418;BME280;41287;47.554;7.844;2023-05-20T00:22:19;97966.09;;;18.66;54.51
55418;BME280;41287;47.554;7.844;2023-05-20T00:24:44;97964.16;;;18.67;54.30
55418;BME280;41287;47.554;7.844;2023-05-20T00:27:10;97961.44;;;18.67;54.44
55418;BME280;41287;47.554;7.844;2023-05-20T00:29:35;97956.03;;;18.67;54.65
55418;BME280;41287;47.554;7.844;2023-05-20T00:32:00;97954.09;;;18.67;54.30
55418;BME280;41287;47.554;7.844;2023-05-20T00:34:25;97951.38;;;18.67;54.49
55418;BME280;41287;47.554;7.844;2023-05-20T00:36:53;97952.50;;;18.66;54.46
55418;BME280;41287;47.554;7.844;2023-05-20T00:39:19;97956.81;;;18.67;54.50
55418;BME280;41287;47.554;7.844;2023-05-20T00:41:44;97956.81;;;18.67;54.57
55418;BME280;41287;47.554;7.844;2023-05-20T00:44:09;97959.88;;;18.66;54.52
55418;BME280;41287;47.554;7.844;2023-05-20T00:46:34;97957.94;;;18.66;54.40
55418;BME280;41287;47.554;7.844;2023-05-20T00:49:02;97951.38;;;18.67;54.41
55418;BME280;41287;47.554;7.844;2023-05-20T00:51:29;97953.31;;;18.67;54.42
55418;BME280;41287;47.554;7.844;2023-05-20T00:53:55;97949.81;;;18.66;54.37
55418;BME280;41287;47.554;7.844;2023-05-20T00:56:21;97948.69;;;18.67;54.58
55418;BME280;41287;47.554;7.844;2023-05-20T00:58:48;97945.16;;;18.67;54.55
55418;BME280;41287;47.554;7.844;2023-05-20T01:03:50;97930.81;;;18.66;54.52
55418;BME280;41287;47.554;7.844;2023-05-20T01:06:17;97940.06;;;18.65;54.56
55418;BME280;41287;47.554;7.844;2023-05-20T01:08:43;97938.16;;;18.66;54.59
55418;BME280;41287;47.554;7.844;2023-05-20T01:11:19;97936.22;;;18.66;54.59
55418;BME280;41287;47.554;7.844;2023-05-20T01:14:01;97937.34;;;18.65;54.48
55418;BME280;41287;47.554;7.844;2023-05-20T01:16:37;97937.34;;;18.65;54.61
55418;BME280;41287;47.554;7.844;2023-05-20T01:19:07;97930.81;;;18.66;54.42
55418;BME280;41287;47.554;7.844;2023-05-20T01:21:39;97926.16;;;18.67;54.56
55418;BME280;41287;47.554;7.844;2023-05-20T01:24:05;97925.38;;;18.66;54.56
55418;BME280;41287;47.554;7.844;2023-05-20T01:26:30;97922.66;;;18.66;54.49
55418;BME280;41287;47.554;7.844;2023-05-20T01:28:59;97921.53;;;18.67;54.48
55418;BME280;41287;47.554;7.844;2023-05-20T01:31:31;97916.44;;;18.66;54.52
55418;BME280;41287;47.554;7.844;2023-05-20T01:33:58;97917.22;;;18.66;54.52
55418;BME280;41287;47.554;7.844;2023-05-20T01:36:24;97914.53;;;18.66;54.59
55418;BME280;41287;47.554;7.844;2023-05-20T01:38:52;97909.09;;;18.66;54.56
55418;BME280;41287;47.554;7.844;2023-05-20T01:41:18;97916.09;;;18.67;54.59
55418;BME280;41287;47.554;7.844;2023-05-20T01:43:44;97917.22;;;18.66;54.67
55418;BME280;41287;47.554;7.844;2023-05-20T01:46:10;97922.34;;;18.68;54.58
55418;BME280;41287;47.554;7.844;2023-05-20T01:48:37;97919.16;;;18.66;54.71
55418;BME280;41287;47.554;7.844;2023-05-20T01:51:02;97921.88;;;18.66;54.55
55418;BME280;41287;47.554;7.844;2023-05-20T01:53:28;97919.94;;;18.66;54.47
55418;BME280;41287;47.554;7.844;2023-05-20T01:55:53;97917.22;;;18.66;54.46
55418;BME280;41287;47.554;7.844;2023-05-20T01:58:18;97919.16;;;18.66;54.49
55418;BME280;41287;47.554;7.844;2023-05-20T02:00:45;97911.81;;;18.66;54.62
55418;BME280;41287;47.554;7.844;2023-05-20T02:03:13;97911.81;;;18.66;54.50
55418;BME280;41287;47.554;7.844;2023-05-20T02:05:38;97912.59;;;18.67;54.44
55418;BME280;41287;47.554;7.844;2023-05-20T02:08:03;97918.03;;;18.67;54.66
55418;BME280;41287;47.554;7.844;2023-05-20T02:10:29;97921.53;;;18.67;54.48
55418;BME280;41287;47.554;7.844;2023-05-20T02:12:54;97909.09;;;18.66;54.46
55418;BME280;41287;47.554;7.844;2023-05-20T02:15:20;97911.81;;;18.66;54.70
55418;BME280;41287;47.554;7.844;2023-05-20T02:17:45;97909.88;;;18.67;54.55
55418;BME280;41287;47.554;7.844;2023-05-20T02:20:11;97914.19;;;18.68;54.58
55418;BME280;41287;47.554;7.844;2023-05-20T02:22:37;97910.69;;;18.67;54.51
55418;BME280;41287;47.554;7.844;2023-05-20T02:25:03;97909.88;;;18.67;54.72
55418;BME280;41287;47.554;7.844;2023-05-20T02:27:28;97907.16;;;18.67;54.58
55418;BME280;41287;47.554;7.844;2023-05-20T02:29:54;97903.66;;;18.66;54.69
55418;BME280;41287;47.554;7.844;2023-05-20T02:32:19;97900.16;;;18.66;54.69
55418;BME280;41287;47.554;7.844;2023-05-20T02:34:45;97896.66;;;18.65;54.54
55418;BME280;41287;47.554;7.844;2023-05-20T02:37:11;97906.38;;;18.66;54.58
55418;BME280;41287;47.554;7.844;2023-05-20T02:39:36;97898.25;;;18.66;54.71
55418;BME280;41287;47.554;7.844;2023-05-20T02:42:01;97885.47;;;18.67;54.69
55418;BME280;41287;47.554;7.844;2023-05-20T02:44:28;97889.31;;;18.66;54.63
55418;BME280;41287;47.554;7.844;2023-05-20T02:46:54;97883.88;;;18.66;54.73
55418;BME280;41287;47.554;7.844;2023-05-20T02:49:19;97883.06;;;18.65;54.59
55418;BME280;41287;47.554;7.844;2023-05-20T02:51:45;97886.59;;;18.66;54.64
55418;BME280;41287;47.554;7.844;2023-05-20T02:54:12;97886.59;;;18.66;54.77
55418;BME280;41287;47.554;7.844;2023-05-20T02:56:37;97879.25;;;18.66;54.59
55418;BME280;41287;47.554;7.844;2023-05-20T02:59:03;97889.31;;;18.66;54.71
55418;BME280;41287;47.554;7.844;2023-05-20T03:01:29;97887.38;;;18.66;54.61
55418;BME280;41287;47.554;7.844;2023-05-20T03:03:54;97887.38;;;18.66;54.64
55418;BME280;41287;47.554;7.844;2023-05-20T03:06:21;97881.16;;;18.66;54.74
55418;BME280;41287;47.554;7.844;2023-05-20T03:08:46;97881.94;;;18.66;54.76
55418;BME280;41287;47.554;7.844;2023-05-20T03:11:12;97883.06;;;18.65;54.64
55418;BME280;41287;47.554;7.844;2023-05-20T03:13:37;97878.44;;;18.66;54.78
55418;BME280;41287;47.554;7.844;2023-05-20T03:16:03;97883.06;;;18.65;54.80
55418;BME280;41287;47.554;7.844;2023-05-20T03:18:28;97879.25;;;18.66;54.77
55418;BME280;41287;47.554;7.844;2023-05-20T03:20:53;97878.44;;;18.66;54.74
55418;BME280;41287;47.554;7.844;2023-05-20T03:23:19;97881.16;;;18.66;54.77
55418;BME280;41287;47.554;7.844;2023-05-20T03:25:47;97876.53;;;18.66;54.64
55418;BME280;41287;47.554;7.844;2023-05-20T03:28:13;97881.16;;;18.66;54.67
55418;BME280;41287;47.554;7.844;2023-05-20T03:30:38;97873.03;;;18.66;54.75
55418;BME280;41287;47.554;7.844;2023-05-20T03:33:03;97877.31;;;18.67;54.55
55418;BME280;41287;47.554;7.844;2023-05-20T03:35:29;97881.16;;;18.66;54.81
55418;BME280;41287;47.554;7.844;2023-05-20T03:37:55;97878.13;;;18.67;54.89
55418;BME280;41287;47.554;7.844;2023-05-20T03:40:20;97873.03;;;18.66;54.82
55418;BME280;41287;47.554;7.844;2023-05-20T03:42:46;97869.50;;;18.65;54.75
55418;BME280;41287;47.554;7.844;2023-05-20T03:45:11;97872.22;;;18.65;54.76
55418;BME280;41287;47.554;7.844;2023-05-20T03:47:38;97876.53;;;18.66;54.81
55418;BME280;41287;47.554;7.844;2023-05-20T03:50:06;97872.22;;;18.65;54.80
55418;BME280;41287;47.554;7.844;2023-05-20T03:52:31;97880.03;;;18.67;54.78
55418;BME280;41287;47.554;7.844;2023-05-20T03:54:57;97883.06;;;18.65;54.79
55418;BME280;41287;47.554;7.844;2023-05-20T03:57:22;97875.72;;;18.66;54.75
55418;BME280;41287;47.554;7.844;2023-05-20T03:59:49;97872.22;;;18.65;54.80
55418;BME280;41287;47.554;7.844;2023-05-20T04:02:15;97862.16;;;18.66;54.81
55418;BME280;41287;47.554;7.844;2023-05-20T04:04:40;97862.97;;;18.66;54.77
55418;BME280;41287;47.554;7.844;2023-05-20T04:07:08;97870.31;;;18.66;54.65
55418;BME280;41287;47.554;7.844;2023-05-20T04:09:34;97871.09;;;18.66;54.74
55418;BME280;41287;47.554;7.844;2023-05-20T04:12:00;97876.53;;;18.66;54.83
55418;BME280;41287;47.554;7.844;2023-05-20T04:14:25;97879.56;;;18.65;54.90
55418;BME280;41287;47.554;7.844;2023-05-20T04:16:51;97873.03;;;18.66;54.79
55418;BME280;41287;47.554;7.844;2023-05-20T04:19:16;97872.22;;;18.65;54.89
55418;BME280;41287;47.554;7.844;2023-05-20T04:21:44;97874.94;;;18.65;54.78
55418;BME280;41287;47.554;7.844;2023-05-20T04:24:09;97873.03;;;18.66;54.71
55418;BME280;41287;47.554;7.844;2023-05-20T04:26:41;97885.00;;;18.65;54.90
55418;BME280;41287;47.554;7.844;2023-05-20T04:29:06;97890.44;;;18.65;54.89
55418;BME280;41287;47.554;7.844;2023-05-20T04:31:32;97887.38;;;18.66;54.74
55418;BME280;41287;47.554;7.844;2023-05-20T04:33:57;97888.50;;;18.65;54.85
55418;BME280;41287;47.554;7.844;2023-05-20T04:36:29;97881.94;;;18.66;54.81
55418;BME280;41287;47.554;7.844;2023-05-20T04:38:54;97879.25;;;18.66;54.80
55418;BME280;41287;47.554;7.844;2023-05-20T04:41:20;97870.31;;;18.66;54.94
55418;BME280;41287;47.554;7.844;2023-05-20T04:43:45;97874.16;;;18.65;54.71
55418;BME280;41287;47.554;7.844;2023-05-20T04:46:11;97874.16;;;18.65;54.79
55418;BME280;41287;47.554;7.844;2023-05-20T04:48:36;97873.34;;;18.64;54.81
55418;BME280;41287;47.554;7.844;2023-05-20T04:51:02;97871.44;;;18.65;54.76
55418;BME280;41287;47.554;7.844;2023-05-20T04:53:34;97867.91;;;18.64;54.90
55418;BME280;41287;47.554;7.844;2023-05-20T04:56:00;97869.50;;;18.65;54.90
55418;BME280;41287;47.554;7.844;2023-05-20T04:58:25;97872.56;;;18.64;54.93
55418;BME280;41287;47.554;7.844;2023-05-20T05:00:50;97875.28;;;18.64;54.87
55418;BME280;41287;47.554;7.844;2023-05-20T05:03:16;97872.22;;;18.65;54.76
55418;BME280;41287;47.554;7.844;2023-05-20T05:05:42;97863.28;;;18.65;54.96
55418;BME280;41287;47.554;7.844;2023-05-20T05:08:08;97862.50;;;18.64;54.91
55418;BME280;41287;47.554;7.844;2023-05-20T05:10:37;97860.56;;;18.65;54.79
55418;BME280;41287;47.554;7.844;2023-05-20T05:13:03;97871.44;;;18.65;54.91
55418;BME280;41287;47.554;7.844;2023-05-20T05:15:28;97858.66;;;18.65;54.64
55418;BME280;41287;47.554;7.844;2023-05-20T05:17:54;97858.66;;;18.65;55.05
55418;BME280;41287;47.554;7.844;2023-05-20T05:20:20;97853.22;;;18.65;54.86
55418;BME280;41287;47.554;7.844;2023-05-20T05:22:45;97850.84;;;18.64;54.68
55418;BME280;41287;47.554;7.844;2023-05-20T05:25:13;97847.34;;;18.63;54.61
55418;BME280;41287;47.554;7.844;2023-05-20T05:27:39;97847.34;;;18.63;54.74
55418;BME280;41287;47.554;7.844;2023-05-20T05:30:05;97848.94;;;18.64;54.73
55418;BME280;41287;47.554;7.844;2023-05-20T05:32:33;97851.63;;;18.64;54.81
55418;BME280;41287;47.554;7.844;2023-05-20T05:35:00;97848.13;;;18.64;54.72
55418;BME280;41287;47.554;7.844;2023-05-20T05:37:25;97853.56;;;18.64;54.54
55418;BME280;41287;47.554;7.844;2023-05-20T05:39:53;97850.84;;;18.64;54.65
55418;BME280;41287;47.554;7.844;2023-05-20T05:42:18;97853.56;;;18.64;54.52
55418;BME280;41287;47.554;7.844;2023-05-20T05:44:44;97851.63;;;18.64;54.50
55418;BME280;41287;47.554;7.844;2023-05-20T05:47:09;97859.78;;;18.64;54.54
55418;BME280;41287;47.554;7.844;2023-05-20T05:49:34;97854.34;;;18.64;54.46
55418;BME280;41287;47.554;7.844;2023-05-20T05:52:00;97856.28;;;18.64;54.61
55418;BME280;41287;47.554;7.844;2023-05-20T05:54:25;97860.56;;;18.65;54.41
55418;BME280;41287;47.554;7.844;2023-05-20T05:56:51;97862.50;;;18.64;54.63
55418;BME280;41287;47.554;7.844;2023-05-20T05:59:18;97857.84;;;18.65;54.52
55418;BME280;41287;47.554;7.844;2023-05-20T06:01:43;97855.16;;;18.65;54.47
55418;BME280;41287;47.554;7.844;2023-05-20T06:04:08;97860.56;;;18.65;54.44
55418;BME280;41287;47.554;7.844;2023-05-20T06:06:34;97855.16;;;18.65;54.64
55418;BME280;41287;47.554;7.844;2023-05-20T06:09:00;97854.81;;;18.66;54.88
55418;BME280;41287;47.554;7.844;2023-05-20T06:11:25;97858.31;;;18.67;55.01
55418;BME280;41287;47.554;7.844;2023-05-20T06:13:50;97860.72;;;18.68;55.24
55418;BME280;41287;47.554;7.844;2023-05-20T06:16:16;97849.84;;;18.68;55.42
55418;BME280;41287;47.554;7.844;2023-05-20T06:18:41;97849.63;;;18.73;55.49
55418;BME280;41287;47.554;7.844;2023-05-20T06:21:08;97852.09;;;18.78;55.85
55418;BME280;41287;47.554;7.844;2023-05-20T06:23:36;97842.16;;;18.82;56.28
55418;BME280;41287;47.554;7.844;2023-05-20T06:26:01;97845.44;;;18.88;57.21
55418;BME280;41287;47.554;7.844;2023-05-20T06:28:28;97846.66;;;18.90;58.08
55418;BME280;41287;47.554;7.844;2023-05-20T06:30:55;97835.91;;;18.94;59.04
55418;BME280;41287;47.554;7.844;2023-05-20T06:33:22;97841.81;;;18.96;60.32
55418;BME280;41287;47.554;7.844;2023-05-20T06:35:50;97833.75;;;19.00;61.69
55418;BME280;41287;47.554;7.844;2023-05-20T06:38:16;97832.28;;;19.02;62.94
55418;BME280;41287;47.554;7.844;2023-05-20T06:40:41;97835.09;;;19.06;63.91
55418;BME280;41287;47.554;7.844;2023-05-20T06:43:07;97835.22;;;19.09;64.46
55418;BME280;41287;47.554;7.844;2023-05-20T06:45:32;97831.38;;;19.10;63.83
55418;BME280;41287;47.554;7.844;2023-05-20T06:47:57;97840.66;;;19.09;62.34
55418;BME280;41287;47.554;7.844;2023-05-20T06:50:22;97838.59;;;19.06;62.13
55418;BME280;41287;47.554;7.844;2023-05-20T06:52:49;97835.44;;;19.04;61.46
55418;BME280;41287;47.554;7.844;2023-05-20T06:55:16;97827.28;;;19.04;60.98
55418;BME280;41287;47.554;7.844;2023-05-20T06:57:44;97819.84;;;19.01;60.39
55418;BME280;41287;47.554;7.844;2023-05-20T07:00:10;97821.75;;;19.01;59.76
55418;BME280;41287;47.554;7.844;2023-05-20T07:02:36;97818.59;;;18.99;59.49
55418;BME280;41287;47.554;7.844;2023-05-20T07:05:01;97819.72;;;18.98;59.13
55418;BME280;41287;47.554;7.844;2023-05-20T07:07:27;97822.78;;;18.96;59.04
55418;BME280;41287;47.554;7.844;2023-05-20T07:09:53;97821.22;;;18.95;58.78
55418;BME280;41287;47.554;7.844;2023-05-20T07:12:19;97813.06;;;18.95;58.49
55418;BME280;41287;47.554;7.844;2023-05-20T07:14:44;97815.31;;;18.93;58.29
55418;BME280;41287;47.554;7.844;2023-05-20T07:17:10;97821.88;;;18.92;58.23
55418;BME280;41287;47.554;7.844;2023-05-20T07:19:35;97828.44;;;18.91;58.20
55418;BME280;41287;47.554;7.844;2023-05-20T07:22:01;97816.78;;;18.90;57.98
55418;BME280;41287;47.554;7.844;2023-05-20T07:24:26;97819.50;;;18.90;57.97
55418;BME280;41287;47.554;7.844;2023-05-20T07:26:51;97825.72;;;18.91;57.81
55418;BME280;41287;47.554;7.844;2023-05-20T07:29:17;97817.94;;;18.89;57.85
55418;BME280;41287;47.554;7.844;2023-05-20T07:31:42;97817.94;;;18.89;57.72
55418;BME280;41287;47.554;7.844;2023-05-20T07:34:07;97819.06;;;18.88;57.70
55418;BME280;41287;47.554;7.844;2023-05-20T07:36:33;97812.06;;;18.87;57.56
55418;BME280;41287;47.554;7.844;2023-05-20T07:38:58;97807.41;;;18.88;57.51
55418;BME280;41287;47.554;7.844;2023-05-20T07:41:24;97805.84;;;18.87;57.42
55418;BME280;41287;47.554;7.844;2023-05-20T07:43:50;97807.75;;;18.86;57.68
55418;BME280;41287;47.554;7.844;2023-05-20T07:46:16;97796.91;;;18.86;57.36
55418;BME280;41287;47.554;7.844;2023-05-20T07:48:44;97797.22;;;18.85;57.39
55418;BME280;41287;47.554;7.844;2023-05-20T07:51:11;97798.81;;;18.86;57.35
55418;BME280;41287;47.554;7.844;2023-05-20T07:53:37;97808.88;;;18.85;57.39
55418;BME280;41287;47.554;7.844;2023-05-20T07:56:02;97807.28;;;18.84;57.28
55418;BME280;41287;47.554;7.844;2023-05-20T07:58:28;97808.88;;;18.85;57.32
55418;BME280;41287;47.554;7.844;2023-05-20T08:00:55;97810.00;;;18.84;57.17
55418;BME280;41287;47.554;7.844;2023-05-20T08:03:21;97812.72;;;18.84;57.16
55418;BME280;41287;47.554;7.844;2023-05-20T08:05:46;97815.44;;;18.84;57.10
55418;BME280;41287;47.554;7.844;2023-05-20T08:08:13;97814.66;;;18.84;57.14
55418;BME280;41287;47.554;7.844;2023-05-20T08:10:40;97811.13;;;18.83;57.17
55418;BME280;41287;47.554;7.844;2023-05-20T08:13:05;97811.94;;;18.84;57.00
55418;BME280;41287;47.554;7.844;2023-05-20T08:15:31;97813.09;;;18.83;57.08
55418;BME280;41287;47.554;7.844;2023-05-20T08:17:56;97815.00;;;18.82;57.04
55418;BME280;41287;47.554;7.844;2023-05-20T08:20:22;97810.38;;;18.83;56.88
55418;BME280;41287;47.554;7.844;2023-05-20T08:22:47;97807.66;;;18.83;57.02
55418;BME280;41287;47.554;7.844;2023-05-20T08:25:13;97804.94;;;18.83;57.22
55418;BME280;41287;47.554;7.844;2023-05-20T08:27:38;97798.72;;;18.82;56.93
55418;BME280;41287;47.554;7.844;2023-05-20T08:30:06;97797.13;;;18.81;56.89
55418;BME280;41287;47.554;7.844;2023-05-20T08:32:34;97802.56;;;18.81;56.97
55418;BME280;41287;47.554;7.844;2023-05-20T08:34:59;97795.22;;;18.82;56.88
55418;BME280;41287;47.554;7.844;2023-05-20T08:37:27;97792.84;;;18.80;56.79
55418;BME280;41287;47.554;7.844;2023-05-20T08:39:54;97788.19;;;18.81;56.83
55418;BME280;41287;47.554;7.844;2023-05-20T08:42:23;97796.34;;;18.81;56.65
55418;BME280;41287;47.554;7.844;2023-05-20T08:44:51;97789.00;;;18.81;56.88
55418;BME280;41287;47.554;7.844;2023-05-20T08:47:19;97783.91;;;18.80;56.73
55418;BME280;41287;47.554;7.844;2023-05-20T08:49:47;97792.03;;;18.80;56.85
55418;BME280;41287;47.554;7.844;2023-05-20T08:52:15;97780.38;;;18.79;56.83
55418;BME280;41287;47.554;7.844;2023-05-20T08:54:46;97787.41;;;18.80;56.75
55418;BME280;41287;47.554;7.844;2023-05-20T08:57:12;97792.03;;;18.80;56.66
55418;BME280;41287;47.554;7.844;2023-05-20T08:59:42;97792.03;;;18.80;56.87
55418;BME280;41287;47.554;7.844;2023-05-20T09:02:08;97785.47;;;18.81;56.58
55418;BME280;41287;47.554;7.844;2023-05-20T09:04:35;97775.75;;;18.80;56.74
55418;BME280;41287;47.554;7.844;2023-05-20T09:07:00;97777.69;;;18.79;56.63
55418;BME280;41287;47.554;7.844;2023-05-20T09:09:25;97774.97;;;18.79;56.65
55418;BME280;41287;47.554;7.844;2023-05-20T09:11:51;97776.09;;;18.78;56.61
55418;BME280;41287;47.554;7.844;2023-05-20T09:14:16;97783.09;;;18.79;56.67
55418;BME280;41287;47.554;7.844;2023-05-20T09:16:42;97781.53;;;18.78;56.81
55418;BME280;41287;47.554;7.844;2023-05-20T09:19:07;97780.38;;;18.79;56.84
55418;BME280;41287;47.554;7.844;2023-05-20T09:21:34;97782.31;;;18.79;56.53
55418;BME280;41287;47.554;7.844;2023-05-20T09:24:00;97776.88;;;18.79;56.66
55418;BME280;41287;47.554;7.844;2023-05-20T09:26:27;97778.81;;;18.78;56.55
55418;BME280;41287;47.554;7.844;2023-05-20T09:28:57;97778.81;;;18.78;56.60
55418;BME280;41287;47.554;7.844;2023-05-20T09:31:30;97775.28;;;18.78;56.72
55418;BME280;41287;47.554;7.844;2023-05-20T09:33:59;97778.81;;;18.78;56.61
55418;BME280;41287;47.554;7.844;2023-05-20T09:36:27;97777.22;;;18.77;56.71
55418;BME280;41287;47.554;7.844;2023-05-20T09:38:57;97778.81;;;18.78;56.71
55418;BME280;41287;47.554;7.844;2023-05-20T09:41:31;97773.38;;;18.78;56.59
55418;BME280;41287;47.554;7.844;2023-05-20T09:43:58;97772.59;;;18.78;56.69
55418;BME280;41287;47.554;7.844;2023-05-20T09:46:24;97769.88;;;18.78;56.64
55418;BME280;41287;47.554;7.844;2023-05-20T09:48:50;97771.00;;;18.77;56.64
55418;BME280;41287;47.554;7.844;2023-05-20T09:51:16;97773.72;;;18.77;56.63
55418;BME280;41287;47.554;7.844;2023-05-20T09:53:42;97769.88;;;18.78;56.75
55418;BME280;41287;47.554;7.844;2023-05-20T09:56:08;97785.38;;;18.77;56.45
55418;BME280;41287;47.554;7.844;2023-05-20T09:58:35;97779.94;;;18.77;56.50
55418;BME280;41287;47.554;7.844;2023-05-20T10:01:02;97781.84;;;18.77;56.71
55418;BME280;41287;47.554;7.844;2023-05-20T10:03:27;97778.38;;;18.76;56.55
55418;BME280;41287;47.554;7.844;2023-05-20T10:14:38;97776.34;;;18.73;56.57
55418;BME280;41287;47.554;7.844;2023-05-20T10:17:17;97768.97;;;18.74;56.58
55418;BME280;41287;47.554;7.844;2023-05-20T10:19:45;97772.94;;;18.76;56.45
55418;BME280;41287;47.554;7.844;2023-05-20T10:22:10;97768.66;;;18.75;56.64
55418;BME280;41287;47.554;7.844;2023-05-20T10:24:41;97759.72;;;18.75;56.64
55418;BME280;41287;47.554;7.844;2023-05-20T10:27:12;97760.50;;;18.75;56.61
55418;BME280;41287;47.554;7.844;2023-05-20T10:29:52;97751.13;;;18.73;56.72
55418;BME280;41287;47.554;7.844;2023-05-20T10:32:29;97756.22;;;18.74;56.57
55418;BME280;41287;47.554;7.844;2023-05-20T10:35:07;97741.84;;;18.74;56.52
55418;BME280;41287;47.554;7.844;2023-05-20T10:37:41;97741.84;;;18.74;56.60
55418;BME280;41287;47.554;7.844;2023-05-20T10:40:09;97748.06;;;18.74;56.65
55418;BME280;41287;47.554;7.844;2023-05-20T10:42:35;97756.22;;;18.74;56.50
55418;BME280;41287;47.554;7.844;2023-05-20T10:45:01;97748.06;;;18.74;56.61
55418;BME280;41287;47.554;7.844;2023-05-20T10:47:27;97742.63;;;18.74;56.52
55418;BME280;41287;47.554;7.844;2023-05-20T10:49:52;97742.63;;;18.74;56.54
55418;BME280;41287;47.554;7.844;2023-05-20T10:52:18;97739.91;;;18.74;56.58
55418;BME280;41287;47.554;7.844;2023-05-20T10:54:56;97738.66;;;18.72;56.51
55418;BME280;41287;47.554;7.844;2023-05-20T10:57:22;97737.22;;;18.74;56.52
55418;BME280;41287;47.554;7.844;2023-05-20T10:59:48;97737.22;;;18.74;56.49
55418;BME280;41287;47.554;7.844;2023-05-20T11:02:15;97736.41;;;18.74;56.67
55418;BME280;41287;47.554;7.844;2023-05-20T11:04:44;97742.97;;;18.73;56.49
55418;BME280;41287;47.554;7.844;2023-05-20T11:07:10;97748.06;;;18.74;56.51
55418;BME280;41287;47.554;7.844;2023-05-20T11:09:36;97746.16;;;18.75;56.41
55418;BME280;41287;47.554;7.844;2023-05-20T11:12:02;97742.63;;;18.74;56.58
55418;BME280;41287;47.554;7.844;2023-05-20T11:14:28;97734.81;;;18.73;56.53
55418;BME280;41287;47.554;7.844;2023-05-20T11:16:57;97723.97;;;18.73;56.58
55418;BME280;41287;47.554;7.844;2023-05-20T11:19:23;97723.19;;;18.72;56.56
55418;BME280;41287;47.554;7.844;2023-05-20T11:21:48;97720.13;;;18.74;56.52
55418;BME280;41287;47.554;7.844;2023-05-20T11:24:23;97717.75;;;18.72;56.53
55418;BME280;41287;47.554;7.844;2023-05-20T11:26:49;97719.34;;;18.73;56.49
55418;BME280;41287;47.554;7.844;2023-05-20T11:29:17;97712.31;;;18.72;56.54
55418;BME280;41287;47.554;7.844;2023-05-20T11:31:44;97717.41;;;18.74;56.65
55418;BME280;41287;47.554;7.844;2023-05-20T11:34:09;97712.00;;;18.74;56.52
55418;BME280;41287;47.554;7.844;2023-05-20T11:36:42;97717.75;;;18.72;56.46
55418;BME280;41287;47.554;7.844;2023-05-20T11:39:11;97713.13;;;18.73;56.60
55418;BME280;41287;47.554;7.844;2023-05-20T11:41:38;97699.53;;;18.73;56.44
55418;BME280;41287;47.554;7.844;2023-05-20T11:44:03;97707.69;;;18.73;56.63
55418;BME280;41287;47.554;7.844;2023-05-20T11:46:29;97701.47;;;18.72;56.49
55418;BME280;41287;47.554;7.844;2023-05-20T11:48:56;97692.53;;;18.72;56.59
55418;BME280;41287;47.554;7.844;2023-05-20T11:51:31;97687.91;;;18.72;56.61
55418;BME280;41287;47.554;7.844;2023-05-20T11:54:00;97687.09;;;18.72;56.52
55418;BME280;41287;47.554;7.844;2023-05-20T11:56:30;97689.03;;;18.71;56.49
55418;BME280;41287;47.554;7.844;2023-05-20T11:58:56;97687.91;;;18.72;56.44
55418;BME280;41287;47.554;7.844;2023-05-20T12:01:22;97688.22;;;18.71;56.52
55418;BME280;41287;47.554;7.844;2023-05-20T12:03:48;97689.81;;;18.72;56.61
55418;BME280;41287;47.554;7.844;2023-05-20T12:06:13;97687.09;;;18.72;56.59
55418;BME280;41287;47.554;7.844;2023-05-20T12:08:39;97680.88;;;18.71;56.58
55418;BME280;41287;47.554;7.844;2023-05-20T12:11:06;97672.75;;;18.71;56.54
55418;BME280;41287;47.554;7.844;2023-05-20T12:13:32;97669.25;;;18.71;56.60
55418;BME280;41287;47.554;7.844;2023-05-20T12:15:57;97670.03;;;18.71;56.46
55418;BME280;41287;47.554;7.844;2023-05-20T12:18:25;97675.47;;;18.71;56.57
55418;BME280;41287;47.554;7.844;2023-05-20T12:20:50;97678.97;;;18.72;56.43
55418;BME280;41287;47.554;7.844;2023-05-20T12:23:15;97671.63;;;18.72;56.45
55418;BME280;41287;47.554;7.844;2023-05-20T12:25:40;97672.75;;;18.71;56.60
55418;BME280;41287;47.554;7.844;2023-05-20T12:28:06;97661.09;;;18.71;56.70
55418;BME280;41287;47.554;7.844;2023-05-20T12:30:32;97671.94;;;18.71;56.60
55418;BME280;41287;47.554;7.844;2023-05-20T12:32:57;97667.31;;;18.71;56.58
55418;BME280;41287;47.554;7.844;2023-05-20T12:35:37;97657.97;;;18.69;56.55
55418;BME280;41287;47.554;7.844;2023-05-20T12:38:03;97666.53;;;18.71;56.57
55418;BME280;41287;47.554;7.844;2023-05-20T12:40:29;97658.38;;;18.71;56.45
55418;BME280;41287;47.554;7.844;2023-05-20T12:42:54;97669.25;;;18.71;56.61
55418;BME280;41287;47.554;7.844;2023-05-20T12:45:19;97660.31;;;18.70;56.53
55418;BME280;41287;47.554;7.844;2023-05-20T12:47:45;97663.00;;;18.70;56.63
55418;BME280;41287;47.554;7.844;2023-05-20T12:50:10;97659.16;;;18.71;56.60
55418;BME280;41287;47.554;7.844;2023-05-20T12:52:35;97655.66;;;18.71;56.40
55418;BME280;41287;47.554;7.844;2023-05-20T12:55:01;97652.94;;;18.71;56.46
55418;BME280;41287;47.554;7.844;2023-05-20T12:57:27;97651.38;;;18.70;56.46
55418;BME280;41287;47.554;7.844;2023-05-20T12:59:53;97656.47;;;18.71;56.53
55418;BME280;41287;47.554;7.844;2023-05-20T13:02:18;97654.88;;;18.70;56.68
55418;BME280;41287;47.554;7.844;2023-05-20T13:04:43;97662.22;;;18.70;56.51
55418;BME280;41287;47.554;7.844;2023-05-20T13:07:09;97651.03;;;18.71;56.58